Liberty Center, Indiana
Current Conditions -  °F | °C
As of 1:35 PM on Wednesday 26 Nov 2014 (Local Time) from KHHG Reporting Station
Overcast Overcast  
Wind Chill: 28°   Ceiling: 1800
Heat Index: 28°   Visibility: 10mi
Dew Point: 22°   Wind: 0mph
Humidity: 78%   Direction: NA
Pressure: 30.1"   Gusts: NA
Location:  40.7°N, 85.28°W
Report Text: KHHG 261835Z AUTO 00000KT 10SM OVC018 M02/M06 A3010 RMK AO2 T10241058
Loading
Personal Weather Stations






























Interactive Weather Map New forecast layout! Learn more

10-Day Weather Forecast

Advertisements
Track Severe Weather on mobile